Afton, Michigan
Current Conditions -  °F | °C
As of 7:37 AM on Monday 20 Oct 2014 (Local Time) from KSLH Reporting Station
Overcast Overcast  
Wind Chill: 49°   Ceiling: 5000
Heat Index: 49°   Visibility: 10mi
Dew Point: 47°   Wind: 3mph
Humidity: 91%   Direction: 220°SW
Pressure: 29.72"   Gusts: NA
Location:  45.36°N, 84.47°W
Report Text: KSLH 201137Z AUTO 22003KT 10SM SCT028 OVC050 09/08 A2972 RMK AO2 T00950081
Loading
Personal Weather Stations






























Interactive Weather Map
Tropical Storm Tracking
New forecast layout! Learn more

10-Day Weather Forecast

Advertisements
Track Severe Weather on mobile